sensor_id;sensor_type;location;lat;lon;timestamp;P1;durP1;ratioP1;P2;durP2;ratioP2
57820;SDS011;43649;49.474;8.466;2022-08-19T00:00:48;17.15;;;13.88;;
57820;SDS011;43649;49.474;8.466;2022-08-19T00:03:15;17.38;;;14.80;;
57820;SDS011;43649;49.474;8.466;2022-08-19T00:05:41;21.13;;;13.93;;
57820;SDS011;43649;49.474;8.466;2022-08-19T00:08:06;15.48;;;13.82;;
57820;SDS011;43649;49.474;8.466;2022-08-19T00:10:31;20.00;;;14.80;;
57820;SDS011;43649;49.474;8.466;2022-08-19T00:12:57;25.50;;;14.43;;
57820;SDS011;43649;49.474;8.466;2022-08-19T00:15:22;18.33;;;13.73;;
57820;SDS011;43649;49.474;8.466;2022-08-19T00:17:48;20.05;;;14.27;;
57820;SDS011;43649;49.474;8.466;2022-08-19T00:20:16;21.17;;;14.43;;
57820;SDS011;43649;49.474;8.466;2022-08-19T00:22:43;19.65;;;13.85;;
57820;SDS011;43649;49.474;8.466;2022-08-19T00:25:09;21.92;;;14.68;;
57820;SDS011;43649;49.474;8.466;2022-08-19T00:27:35;16.45;;;13.07;;
57820;SDS011;43649;49.474;8.466;2022-08-19T00:30:01;17.08;;;14.60;;
57820;SDS011;43649;49.474;8.466;2022-08-19T00:32:27;18.20;;;14.35;;
57820;SDS011;43649;49.474;8.466;2022-08-19T00:34:53;16.08;;;14.38;;
57820;SDS011;43649;49.474;8.466;2022-08-19T00:37:19;19.02;;;14.38;;
57820;SDS011;43649;49.474;8.466;2022-08-19T00:39:45;18.55;;;14.57;;
57820;SDS011;43649;49.474;8.466;2022-08-19T00:42:10;19.20;;;13.98;;
57820;SDS011;43649;49.474;8.466;2022-08-19T00:44:36;18.33;;;15.13;;
57820;SDS011;43649;49.474;8.466;2022-08-19T00:47:01;17.52;;;14.27;;
57820;SDS011;43649;49.474;8.466;2022-08-19T00:49:29;19.92;;;14.00;;
57820;SDS011;43649;49.474;8.466;2022-08-19T00:51:59;21.05;;;14.65;;
57820;SDS011;43649;49.474;8.466;2022-08-19T00:54:32;20.35;;;13.70;;
57820;SDS011;43649;49.474;8.466;2022-08-19T00:56:58;17.60;;;15.20;;
57820;SDS011;43649;49.474;8.466;2022-08-19T00:59:24;16.63;;;14.82;;
57820;SDS011;43649;49.474;8.466;2022-08-19T01:01:50;19.50;;;14.70;;
57820;SDS011;43649;49.474;8.466;2022-08-19T01:04:17;20.75;;;14.75;;
57820;SDS011;43649;49.474;8.466;2022-08-19T01:06:43;21.05;;;15.32;;
57820;SDS011;43649;49.474;8.466;2022-08-19T01:09:08;18.90;;;14.50;;
57820;SDS011;43649;49.474;8.466;2022-08-19T01:11:36;19.35;;;14.93;;
57820;SDS011;43649;49.474;8.466;2022-08-19T01:14:06;20.20;;;15.10;;
57820;SDS011;43649;49.474;8.466;2022-08-19T01:16:33;16.45;;;14.68;;
57820;SDS011;43649;49.474;8.466;2022-08-19T01:18:59;21.55;;;15.93;;
57820;SDS011;43649;49.474;8.466;2022-08-19T01:21:27;21.60;;;14.68;;
57820;SDS011;43649;49.474;8.466;2022-08-19T01:23:58;18.30;;;14.75;;
57820;SDS011;43649;49.474;8.466;2022-08-19T01:26:24;20.92;;;14.93;;
57820;SDS011;43649;49.474;8.466;2022-08-19T01:28:53;20.63;;;15.40;;
57820;SDS011;43649;49.474;8.466;2022-08-19T01:31:20;22.63;;;15.35;;
57820;SDS011;43649;49.474;8.466;2022-08-19T01:33:47;21.83;;;15.95;;
57820;SDS011;43649;49.474;8.466;2022-08-19T01:36:15;22.10;;;16.08;;
57820;SDS011;43649;49.474;8.466;2022-08-19T01:38:46;25.08;;;17.23;;
57820;SDS011;43649;49.474;8.466;2022-08-19T01:41:13;18.83;;;16.38;;
57820;SDS011;43649;49.474;8.466;2022-08-19T01:43:39;21.40;;;16.38;;
57820;SDS011;43649;49.474;8.466;2022-08-19T01:46:04;21.10;;;16.30;;
57820;SDS011;43649;49.474;8.466;2022-08-19T01:48:32;19.00;;;16.50;;
57820;SDS011;43649;49.474;8.466;2022-08-19T01:50:59;20.35;;;16.00;;
57820;SDS011;43649;49.474;8.466;2022-08-19T01:53:24;23.73;;;16.13;;
57820;SDS011;43649;49.474;8.466;2022-08-19T01:55:50;25.23;;;15.40;;
57820;SDS011;43649;49.474;8.466;2022-08-19T01:58:19;20.70;;;16.75;;
57820;SDS011;43649;49.474;8.466;2022-08-19T02:00:47;20.02;;;15.85;;
57820;SDS011;43649;49.474;8.466;2022-08-19T02:03:13;25.60;;;16.80;;
57820;SDS011;43649;49.474;8.466;2022-08-19T02:05:41;21.45;;;15.93;;
57820;SDS011;43649;49.474;8.466;2022-08-19T02:08:07;19.27;;;15.10;;
57820;SDS011;43649;49.474;8.466;2022-08-19T02:10:33;19.45;;;16.05;;
57820;SDS011;43649;49.474;8.466;2022-08-19T02:13:02;24.33;;;16.15;;
57820;SDS011;43649;49.474;8.466;2022-08-19T02:15:29;23.95;;;17.60;;
57820;SDS011;43649;49.474;8.466;2022-08-19T02:17:55;20.15;;;16.13;;
57820;SDS011;43649;49.474;8.466;2022-08-19T02:20:20;21.85;;;16.33;;
57820;SDS011;43649;49.474;8.466;2022-08-19T02:22:45;22.88;;;15.20;;
57820;SDS011;43649;49.474;8.466;2022-08-19T02:25:11;23.58;;;16.60;;
57820;SDS011;43649;49.474;8.466;2022-08-19T02:27:38;23.00;;;17.17;;
57820;SDS011;43649;49.474;8.466;2022-08-19T02:30:05;27.60;;;16.50;;
57820;SDS011;43649;49.474;8.466;2022-08-19T02:32:34;22.75;;;16.95;;
57820;SDS011;43649;49.474;8.466;2022-08-19T02:34:59;26.23;;;17.70;;
57820;SDS011;43649;49.474;8.466;2022-08-19T02:37:25;21.05;;;16.42;;
57820;SDS011;43649;49.474;8.466;2022-08-19T02:39:50;20.05;;;17.15;;
57820;SDS011;43649;49.474;8.466;2022-08-19T02:42:15;23.42;;;17.42;;
57820;SDS011;43649;49.474;8.466;2022-08-19T02:44:41;24.48;;;16.80;;
57820;SDS011;43649;49.474;8.466;2022-08-19T02:47:06;22.85;;;17.38;;
57820;SDS011;43649;49.474;8.466;2022-08-19T02:49:33;25.23;;;16.80;;
57820;SDS011;43649;49.474;8.466;2022-08-19T02:51:58;20.15;;;16.08;;
57820;SDS011;43649;49.474;8.466;2022-08-19T02:54:24;23.20;;;16.13;;
57820;SDS011;43649;49.474;8.466;2022-08-19T02:56:49;22.35;;;16.70;;
57820;SDS011;43649;49.474;8.466;2022-08-19T02:59:15;28.88;;;18.63;;
57820;SDS011;43649;49.474;8.466;2022-08-19T03:01:41;20.88;;;17.25;;
57820;SDS011;43649;49.474;8.466;2022-08-19T03:04:07;21.83;;;18.63;;
57820;SDS011;43649;49.474;8.466;2022-08-19T03:06:36;22.05;;;17.10;;
57820;SDS011;43649;49.474;8.466;2022-08-19T03:09:03;29.77;;;18.75;;
57820;SDS011;43649;49.474;8.466;2022-08-19T03:11:30;22.80;;;17.42;;
57820;SDS011;43649;49.474;8.466;2022-08-19T03:13:57;22.60;;;17.45;;
57820;SDS011;43649;49.474;8.466;2022-08-19T03:16:24;23.35;;;16.50;;
57820;SDS011;43649;49.474;8.466;2022-08-19T03:18:56;23.75;;;16.95;;
57820;SDS011;43649;49.474;8.466;2022-08-19T03:21:24;21.25;;;16.80;;
57820;SDS011;43649;49.474;8.466;2022-08-19T03:23:53;30.20;;;18.02;;
57820;SDS011;43649;49.474;8.466;2022-08-19T03:26:18;20.77;;;16.60;;
57820;SDS011;43649;49.474;8.466;2022-08-19T03:28:44;19.80;;;15.38;;
57820;SDS011;43649;49.474;8.466;2022-08-19T03:31:11;27.92;;;17.02;;
57820;SDS011;43649;49.474;8.466;2022-08-19T03:33:38;20.23;;;16.63;;
57820;SDS011;43649;49.474;8.466;2022-08-19T03:36:05;17.45;;;15.02;;
57820;SDS011;43649;49.474;8.466;2022-08-19T03:38:33;20.20;;;15.18;;
57820;SDS011;43649;49.474;8.466;2022-08-19T03:41:03;21.30;;;16.55;;
57820;SDS011;43649;49.474;8.466;2022-08-19T03:43:30;25.52;;;15.95;;
57820;SDS011;43649;49.474;8.466;2022-08-19T03:45:59;25.98;;;16.40;;
57820;SDS011;43649;49.474;8.466;2022-08-19T03:48:26;17.48;;;15.32;;
57820;SDS011;43649;49.474;8.466;2022-08-19T03:50:52;21.95;;;15.52;;
57820;SDS011;43649;49.474;8.466;2022-08-19T03:53:18;23.20;;;15.32;;
57820;SDS011;43649;49.474;8.466;2022-08-19T03:55:43;18.27;;;15.43;;
57820;SDS011;43649;49.474;8.466;2022-08-19T03:58:10;18.75;;;14.98;;
57820;SDS011;43649;49.474;8.466;2022-08-19T04:00:35;22.98;;;15.73;;
57820;SDS011;43649;49.474;8.466;2022-08-19T04:03:00;19.33;;;15.00;;
57820;SDS011;43649;49.474;8.466;2022-08-19T04:05:26;29.52;;;15.27;;
57820;SDS011;43649;49.474;8.466;2022-08-19T04:07:52;17.40;;;15.50;;
57820;SDS011;43649;49.474;8.466;2022-08-19T04:10:17;18.92;;;15.00;;
57820;SDS011;43649;49.474;8.466;2022-08-19T04:12:43;23.85;;;14.80;;
57820;SDS011;43649;49.474;8.466;2022-08-19T04:15:10;17.90;;;15.35;;
57820;SDS011;43649;49.474;8.466;2022-08-19T04:17:36;17.02;;;14.90;;
57820;SDS011;43649;49.474;8.466;2022-08-19T04:20:01;21.13;;;14.45;;
57820;SDS011;43649;49.474;8.466;2022-08-19T04:22:27;17.20;;;15.05;;
57820;SDS011;43649;49.474;8.466;2022-08-19T04:24:52;19.60;;;14.20;;
57820;SDS011;43649;49.474;8.466;2022-08-19T04:27:18;24.75;;;15.55;;
57820;SDS011;43649;49.474;8.466;2022-08-19T04:29:43;20.08;;;15.13;;
57820;SDS011;43649;49.474;8.466;2022-08-19T04:32:10;18.75;;;15.10;;
57820;SDS011;43649;49.474;8.466;2022-08-19T04:34:36;22.20;;;15.68;;
57820;SDS011;43649;49.474;8.466;2022-08-19T04:37:01;20.95;;;14.20;;
57820;SDS011;43649;49.474;8.466;2022-08-19T04:39:31;22.80;;;15.70;;
57820;SDS011;43649;49.474;8.466;2022-08-19T04:41:57;20.98;;;14.43;;
57820;SDS011;43649;49.474;8.466;2022-08-19T04:44:22;19.48;;;13.90;;
57820;SDS011;43649;49.474;8.466;2022-08-19T04:46:48;15.70;;;13.75;;
57820;SDS011;43649;49.474;8.466;2022-08-19T04:49:16;19.35;;;13.55;;
57820;SDS011;43649;49.474;8.466;2022-08-19T04:51:45;17.90;;;14.85;;
57820;SDS011;43649;49.474;8.466;2022-08-19T04:54:11;20.13;;;14.43;;
57820;SDS011;43649;49.474;8.466;2022-08-19T04:56:38;16.05;;;14.35;;
57820;SDS011;43649;49.474;8.466;2022-08-19T04:59:04;18.83;;;13.98;;
57820;SDS011;43649;49.474;8.466;2022-08-19T05:01:30;18.98;;;13.80;;
57820;SDS011;43649;49.474;8.466;2022-08-19T05:03:57;15.55;;;13.40;;
57820;SDS011;43649;49.474;8.466;2022-08-19T05:06:24;23.50;;;14.55;;
57820;SDS011;43649;49.474;8.466;2022-08-19T05:08:49;18.38;;;14.65;;
57820;SDS011;43649;49.474;8.466;2022-08-19T05:11:16;23.67;;;14.32;;
57820;SDS011;43649;49.474;8.466;2022-08-19T05:13:42;19.73;;;14.02;;
57820;SDS011;43649;49.474;8.466;2022-08-19T05:16:09;19.25;;;13.13;;
57820;SDS011;43649;49.474;8.466;2022-08-19T05:18:36;15.90;;;12.73;;
57820;SDS011;43649;49.474;8.466;2022-08-19T05:21:04;23.35;;;12.75;;
57820;SDS011;43649;49.474;8.466;2022-08-19T05:23:32;21.10;;;13.93;;
57820;SDS011;43649;49.474;8.466;2022-08-19T05:25:57;16.33;;;13.57;;
57820;SDS011;43649;49.474;8.466;2022-08-19T05:28:23;14.15;;;11.93;;
57820;SDS011;43649;49.474;8.466;2022-08-19T05:30:48;22.75;;;13.10;;
57820;SDS011;43649;49.474;8.466;2022-08-19T05:33:14;14.88;;;12.05;;
57820;SDS011;43649;49.474;8.466;2022-08-19T05:35:39;13.80;;;11.73;;
57820;SDS011;43649;49.474;8.466;2022-08-19T05:38:05;16.33;;;12.68;;
57820;SDS011;43649;49.474;8.466;2022-08-19T05:40:31;14.40;;;12.48;;
57820;SDS011;43649;49.474;8.466;2022-08-19T05:42:58;16.98;;;12.93;;
57820;SDS011;43649;49.474;8.466;2022-08-19T05:45:24;14.00;;;11.70;;
57820;SDS011;43649;49.474;8.466;2022-08-19T05:47:49;15.52;;;12.25;;
57820;SDS011;43649;49.474;8.466;2022-08-19T05:50:15;13.32;;;11.93;;
57820;SDS011;43649;49.474;8.466;2022-08-19T05:52:40;13.85;;;11.73;;
57820;SDS011;43649;49.474;8.466;2022-08-19T05:55:06;19.65;;;12.13;;
57820;SDS011;43649;49.474;8.466;2022-08-19T05:57:33;16.27;;;12.82;;
57820;SDS011;43649;49.474;8.466;2022-08-19T05:59:58;26.70;;;12.95;;
57820;SDS011;43649;49.474;8.466;2022-08-19T06:02:24;18.92;;;12.57;;
57820;SDS011;43649;49.474;8.466;2022-08-19T06:04:50;17.40;;;13.75;;
57820;SDS011;43649;49.474;8.466;2022-08-19T06:07:16;17.85;;;12.52;;
57820;SDS011;43649;49.474;8.466;2022-08-19T06:09:41;25.15;;;12.80;;
57820;SDS011;43649;49.474;8.466;2022-08-19T06:12:07;25.38;;;13.15;;
57820;SDS011;43649;49.474;8.466;2022-08-19T06:14:34;16.35;;;12.88;;
57820;SDS011;43649;49.474;8.466;2022-08-19T06:17:00;15.93;;;14.23;;
57820;SDS011;43649;49.474;8.466;2022-08-19T06:19:26;15.85;;;13.40;;
57820;SDS011;43649;49.474;8.466;2022-08-19T06:21:51;14.43;;;12.27;;
57820;SDS011;43649;49.474;8.466;2022-08-19T06:24:18;14.30;;;12.50;;
57820;SDS011;43649;49.474;8.466;2022-08-19T06:26:45;19.33;;;12.68;;
57820;SDS011;43649;49.474;8.466;2022-08-19T06:29:12;14.77;;;12.27;;
57820;SDS011;43649;49.474;8.466;2022-08-19T06:31:42;16.90;;;12.15;;
57820;SDS011;43649;49.474;8.466;2022-08-19T06:34:08;15.40;;;11.85;;
57820;SDS011;43649;49.474;8.466;2022-08-19T06:36:35;15.95;;;12.63;;
57820;SDS011;43649;49.474;8.466;2022-08-19T06:39:02;13.40;;;11.63;;
57820;SDS011;43649;49.474;8.466;2022-08-19T06:41:29;22.05;;;11.05;;
57820;SDS011;43649;49.474;8.466;2022-08-19T06:43:55;18.85;;;12.20;;
57820;SDS011;43649;49.474;8.466;2022-08-19T06:46:22;13.95;;;11.10;;
57820;SDS011;43649;49.474;8.466;2022-08-19T06:48:49;12.70;;;11.10;;
57820;SDS011;43649;49.474;8.466;2022-08-19T06:51:15;12.20;;;10.73;;
57820;SDS011;43649;49.474;8.466;2022-08-19T06:53:41;13.20;;;10.98;;
57820;SDS011;43649;49.474;8.466;2022-08-19T06:56:07;13.10;;;10.40;;
57820;SDS011;43649;49.474;8.466;2022-08-19T06:58:32;15.10;;;10.98;;
57820;SDS011;43649;49.474;8.466;2022-08-19T07:00:59;12.70;;;11.38;;
57820;SDS011;43649;49.474;8.466;2022-08-19T07:03:25;18.23;;;10.63;;
57820;SDS011;43649;49.474;8.466;2022-08-19T07:05:51;14.27;;;11.10;;
57820;SDS011;43649;49.474;8.466;2022-08-19T07:08:17;20.88;;;10.98;;
57820;SDS011;43649;49.474;8.466;2022-08-19T07:10:43;12.88;;;10.98;;
57820;SDS011;43649;49.474;8.466;2022-08-19T07:13:09;13.57;;;10.13;;
57820;SDS011;43649;49.474;8.466;2022-08-19T07:15:35;25.58;;;10.77;;
57820;SDS011;43649;49.474;8.466;2022-08-19T07:18:02;11.55;;;9.38;;
57820;SDS011;43649;49.474;8.466;2022-08-19T07:20:37;15.95;;;10.43;;
57820;SDS011;43649;49.474;8.466;2022-08-19T07:23:04;11.23;;;9.52;;
57820;SDS011;43649;49.474;8.466;2022-08-19T07:25:29;10.55;;;9.45;;
57820;SDS011;43649;49.474;8.466;2022-08-19T07:27:55;13.32;;;8.85;;
57820;SDS011;43649;49.474;8.466;2022-08-19T07:30:20;11.95;;;9.60;;
57820;SDS011;43649;49.474;8.466;2022-08-19T07:32:46;15.95;;;9.25;;
57820;SDS011;43649;49.474;8.466;2022-08-19T07:35:11;14.00;;;9.70;;
57820;SDS011;43649;49.474;8.466;2022-08-19T07:37:36;15.10;;;9.48;;
57820;SDS011;43649;49.474;8.466;2022-08-19T07:40:04;14.23;;;9.32;;
57820;SDS011;43649;49.474;8.466;2022-08-19T07:42:31;12.45;;;9.00;;
57820;SDS011;43649;49.474;8.466;2022-08-19T07:44:56;13.95;;;9.50;;
57820;SDS011;43649;49.474;8.466;2022-08-19T07:47:22;10.82;;;9.70;;
57820;SDS011;43649;49.474;8.466;2022-08-19T07:49:48;12.40;;;9.50;;
57820;SDS011;43649;49.474;8.466;2022-08-19T07:52:13;17.15;;;9.35;;
57820;SDS011;43649;49.474;8.466;2022-08-19T07:54:39;14.43;;;8.10;;
57820;SDS011;43649;49.474;8.466;2022-08-19T07:57:06;13.63;;;9.00;;
57820;SDS011;43649;49.474;8.466;2022-08-19T07:59:32;13.82;;;7.68;;
57820;SDS011;43649;49.474;8.466;2022-08-19T08:01:58;18.10;;;7.78;;
57820;SDS011;43649;49.474;8.466;2022-08-19T08:04:24;15.90;;;9.10;;
57820;SDS011;43649;49.474;8.466;2022-08-19T08:06:49;9.20;;;7.78;;
57820;SDS011;43649;49.474;8.466;2022-08-19T08:09:16;11.07;;;7.88;;
57820;SDS011;43649;49.474;8.466;2022-08-19T08:11:44;14.07;;;8.98;;
57820;SDS011;43649;49.474;8.466;2022-08-19T08:14:14;10.57;;;7.55;;
57820;SDS011;43649;49.474;8.466;2022-08-19T08:16:41;11.00;;;7.75;;
57820;SDS011;43649;49.474;8.466;2022-08-19T08:19:07;7.97;;;7.22;;
57820;SDS011;43649;49.474;8.466;2022-08-19T08:21:32;9.45;;;7.60;;
57820;SDS011;43649;49.474;8.466;2022-08-19T08:23:58;7.65;;;6.90;;
57820;SDS011;43649;49.474;8.466;2022-08-19T08:26:24;12.75;;;6.70;;
57820;SDS011;43649;49.474;8.466;2022-08-19T08:28:49;7.53;;;6.72;;
57820;SDS011;43649;49.474;8.466;2022-08-19T08:31:17;9.90;;;6.82;;
57820;SDS011;43649;49.474;8.466;2022-08-19T08:33:42;16.40;;;9.43;;
57820;SDS011;43649;49.474;8.466;2022-08-19T08:36:08;9.60;;;7.38;;
57820;SDS011;43649;49.474;8.466;2022-08-19T08:38:34;9.20;;;6.55;;
57820;SDS011;43649;49.474;8.466;2022-08-19T08:41:02;6.93;;;6.22;;
57820;SDS011;43649;49.474;8.466;2022-08-19T08:43:33;10.35;;;6.68;;
57820;SDS011;43649;49.474;8.466;2022-08-19T08:46:03;11.15;;;6.35;;
57820;SDS011;43649;49.474;8.466;2022-08-19T08:48:35;9.52;;;6.72;;
57820;SDS011;43649;49.474;8.466;2022-08-19T08:51:05;11.68;;;6.63;;
57820;SDS011;43649;49.474;8.466;2022-08-19T08:53:36;9.73;;;6.47;;
57820;SDS011;43649;49.474;8.466;2022-08-19T08:56:03;7.85;;;6.07;;
57820;SDS011;43649;49.474;8.466;2022-08-19T08:58:32;11.27;;;6.38;;
57820;SDS011;43649;49.474;8.466;2022-08-19T09:01:07;9.43;;;7.43;;
57820;SDS011;43649;49.474;8.466;2022-08-19T09:03:36;10.95;;;7.15;;
57820;SDS011;43649;49.474;8.466;2022-08-19T09:06:04;13.70;;;7.40;;
57820;SDS011;43649;49.474;8.466;2022-08-19T09:08:35;10.82;;;7.57;;
57820;SDS011;43649;49.474;8.466;2022-08-19T09:11:08;11.32;;;7.70;;
57820;SDS011;43649;49.474;8.466;2022-08-19T09:13:42;15.23;;;7.53;;
57820;SDS011;43649;49.474;8.466;2022-08-19T09:16:16;8.32;;;7.05;;
57820;SDS011;43649;49.474;8.466;2022-08-19T09:18:48;11.68;;;6.80;;
57820;SDS011;43649;49.474;8.466;2022-08-19T09:21:15;10.98;;;6.88;;
57820;SDS011;43649;49.474;8.466;2022-08-19T09:23:40;7.28;;;6.57;;
57820;SDS011;43649;49.474;8.466;2022-08-19T09:26:07;9.55;;;6.88;;
57820;SDS011;43649;49.474;8.466;2022-08-19T09:28:33;12.65;;;7.55;;
57820;SDS011;43649;49.474;8.466;2022-08-19T09:30:58;10.70;;;8.57;;
57820;SDS011;43649;49.474;8.466;2022-08-19T09:33:24;11.38;;;8.00;;
57820;SDS011;43649;49.474;8.466;2022-08-19T09:36:00;8.70;;;7.75;;
57820;SDS011;43649;49.474;8.466;2022-08-19T09:38:27;13.20;;;8.48;;
57820;SDS011;43649;49.474;8.466;2022-08-19T09:40:52;10.80;;;9.40;;
57820;SDS011;43649;49.474;8.466;2022-08-19T09:43:18;7.90;;;7.15;;
57820;SDS011;43649;49.474;8.466;2022-08-19T09:45:43;7.00;;;6.40;;
57820;SDS011;43649;49.474;8.466;2022-08-19T09:48:08;8.30;;;7.50;;
57820;SDS011;43649;49.474;8.466;2022-08-19T09:50:34;12.88;;;7.88;;
57820;SDS011;43649;49.474;8.466;2022-08-19T09:53:00;7.22;;;6.53;;
57820;SDS011;43649;49.474;8.466;2022-08-19T09:55:26;10.35;;;7.30;;
57820;SDS011;43649;49.474;8.466;2022-08-19T09:57:53;10.18;;;8.07;;
57820;SDS011;43649;49.474;8.466;2022-08-19T10:00:19;10.35;;;6.63;;
57820;SDS011;43649;49.474;8.466;2022-08-19T10:02:44;7.75;;;6.75;;
57820;SDS011;43649;49.474;8.466;2022-08-19T10:05:10;13.15;;;7.25;;
57820;SDS011;43649;49.474;8.466;2022-08-19T10:07:35;10.07;;;7.38;;
57820;SDS011;43649;49.474;8.466;2022-08-19T10:10:02;7.13;;;6.43;;
57820;SDS011;43649;49.474;8.466;2022-08-19T10:12:28;9.38;;;7.00;;
57820;SDS011;43649;49.474;8.466;2022-08-19T10:14:54;9.57;;;6.70;;
57820;SDS011;43649;49.474;8.466;2022-08-19T10:17:19;6.90;;;6.30;;
57820;SDS011;43649;49.474;8.466;2022-08-19T10:19:45;7.80;;;5.78;;
57820;SDS011;43649;49.474;8.466;2022-08-19T10:22:10;5.70;;;5.10;;
57820;SDS011;43649;49.474;8.466;2022-08-19T10:24:36;8.63;;;6.07;;
57820;SDS011;43649;49.474;8.466;2022-08-19T10:27:03;7.50;;;5.20;;
57820;SDS011;43649;49.474;8.466;2022-08-19T10:29:29;14.52;;;5.93;;
57820;SDS011;43649;49.474;8.466;2022-08-19T10:31:55;12.20;;;6.72;;
57820;SDS011;43649;49.474;8.466;2022-08-19T10:34:20;10.98;;;7.00;;
57820;SDS011;43649;49.474;8.466;2022-08-19T10:36:46;7.55;;;6.63;;
57820;SDS011;43649;49.474;8.466;2022-08-19T10:39:11;8.30;;;7.25;;
57820;SDS011;43649;49.474;8.466;2022-08-19T10:41:37;10.23;;;7.22;;
57820;SDS011;43649;49.474;8.466;2022-08-19T10:44:06;12.07;;;7.22;;
57820;SDS011;43649;49.474;8.466;2022-08-19T10:46:35;10.40;;;7.70;;
57820;SDS011;43649;49.474;8.466;2022-08-19T10:49:02;7.93;;;7.20;;
57820;SDS011;43649;49.474;8.466;2022-08-19T10:51:29;7.80;;;7.10;;
57820;SDS011;43649;49.474;8.466;2022-08-19T10:53:55;11.27;;;6.97;;
57820;SDS011;43649;49.474;8.466;2022-08-19T10:56:20;8.52;;;7.35;;
57820;SDS011;43649;49.474;8.466;2022-08-19T10:58:46;10.52;;;8.50;;
57820;SDS011;43649;49.474;8.466;2022-08-19T11:01:13;9.40;;;7.80;;
57820;SDS011;43649;49.474;8.466;2022-08-19T11:03:39;9.35;;;7.65;;
57820;SDS011;43649;49.474;8.466;2022-08-19T11:06:05;10.52;;;7.82;;
57820;SDS011;43649;49.474;8.466;2022-08-19T11:08:32;8.88;;;7.97;;
57820;SDS011;43649;49.474;8.466;2022-08-19T11:10:59;10.75;;;8.15;;
57820;SDS011;43649;49.474;8.466;2022-08-19T11:13:25;8.82;;;7.22;;
57820;SDS011;43649;49.474;8.466;2022-08-19T11:15:58;7.60;;;6.93;;
57820;SDS011;43649;49.474;8.466;2022-08-19T11:18:26;17.65;;;7.78;;
57820;SDS011;43649;49.474;8.466;2022-08-19T11:20:52;10.85;;;7.40;;
57820;SDS011;43649;49.474;8.466;2022-08-19T11:23:17;18.48;;;7.30;;
57820;SDS011;43649;49.474;8.466;2022-08-19T11:25:43;6.78;;;6.18;;
57820;SDS011;43649;49.474;8.466;2022-08-19T11:28:08;6.20;;;5.65;;
57820;SDS011;43649;49.474;8.466;2022-08-19T11:30:33;9.07;;;5.70;;
57820;SDS011;43649;49.474;8.466;2022-08-19T11:32:59;6.13;;;5.18;;
57820;SDS011;43649;49.474;8.466;2022-08-19T11:35:26;5.38;;;5.07;;
57820;SDS011;43649;49.474;8.466;2022-08-19T11:37:51;6.05;;;5.35;;
57820;SDS011;43649;49.474;8.466;2022-08-19T11:40:17;5.85;;;5.35;;
57820;SDS011;43649;49.474;8.466;2022-08-19T11:42:42;8.45;;;6.38;;
57820;SDS011;43649;49.474;8.466;2022-08-19T11:45:08;10.77;;;5.93;;
57820;SDS011;43649;49.474;8.466;2022-08-19T11:47:34;6.93;;;5.68;;
57820;SDS011;43649;49.474;8.466;2022-08-19T11:49:59;8.20;;;5.90;;
57820;SDS011;43649;49.474;8.466;2022-08-19T11:52:26;6.43;;;5.80;;
57820;SDS011;43649;49.474;8.466;2022-08-19T11:54:51;5.85;;;5.32;;
57820;SDS011;43649;49.474;8.466;2022-08-19T11:57:17;6.88;;;5.38;;
57820;SDS011;43649;49.474;8.466;2022-08-19T11:59:47;5.30;;;4.90;;
57820;SDS011;43649;49.474;8.466;2022-08-19T12:02:13;10.88;;;6.30;;
57820;SDS011;43649;49.474;8.466;2022-08-19T12:04:38;9.80;;;5.15;;
57820;SDS011;43649;49.474;8.466;2022-08-19T12:07:04;5.30;;;4.80;;
57820;SDS011;43649;49.474;8.466;2022-08-19T12:09:30;5.65;;;5.05;;
57820;SDS011;43649;49.474;8.466;2022-08-19T12:11:56;7.47;;;4.88;;
57820;SDS011;43649;49.474;8.466;2022-08-19T12:14:21;7.20;;;4.40;;
57820;SDS011;43649;49.474;8.466;2022-08-19T12:16:46;8.93;;;4.22;;
57820;SDS011;43649;49.474;8.466;2022-08-19T12:19:12;4.40;;;4.10;;
57820;SDS011;43649;49.474;8.466;2022-08-19T12:21:37;4.88;;;4.47;;
57820;SDS011;43649;49.474;8.466;2022-08-19T12:24:04;5.68;;;4.32;;
57820;SDS011;43649;49.474;8.466;2022-08-19T12:26:31;5.35;;;4.40;;
57820;SDS011;43649;49.474;8.466;2022-08-19T12:28:57;4.22;;;3.92;;
57820;SDS011;43649;49.474;8.466;2022-08-19T12:31:23;6.68;;;4.07;;
57820;SDS011;43649;49.474;8.466;2022-08-19T12:33:48;4.97;;;4.55;;
57820;SDS011;43649;49.474;8.466;2022-08-19T12:36:14;9.48;;;4.03;;
57820;SDS011;43649;49.474;8.466;2022-08-19T12:38:41;4.88;;;4.40;;
57820;SDS011;43649;49.474;8.466;2022-08-19T12:41:07;4.25;;;3.95;;
57820;SDS011;43649;49.474;8.466;2022-08-19T12:43:36;4.30;;;4.00;;
57820;SDS011;43649;49.474;8.466;2022-08-19T12:46:02;4.63;;;4.20;;
57820;SDS011;43649;49.474;8.466;2022-08-19T12:48:28;10.63;;;4.10;;
57820;SDS011;43649;49.474;8.466;2022-08-19T12:50:53;20.45;;;4.03;;
57820;SDS011;43649;49.474;8.466;2022-08-19T12:53:19;4.45;;;4.05;;
57820;SDS011;43649;49.474;8.466;2022-08-19T12:55:44;4.10;;;3.80;;
57820;SDS011;43649;49.474;8.466;2022-08-19T12:58:10;5.15;;;4.68;;
57820;SDS011;43649;49.474;8.466;2022-08-19T13:00:36;5.47;;;4.13;;
57820;SDS011;43649;49.474;8.466;2022-08-19T13:03:02;4.18;;;3.88;;
57820;SDS011;43649;49.474;8.466;2022-08-19T13:05:28;9.32;;;4.00;;
57820;SDS011;43649;49.474;8.466;2022-08-19T13:07:56;7.05;;;4.22;;
57820;SDS011;43649;49.474;8.466;2022-08-19T13:10:25;9.45;;;4.30;;
57820;SDS011;43649;49.474;8.466;2022-08-19T13:12:54;4.20;;;3.80;;
57820;SDS011;43649;49.474;8.466;2022-08-19T13:15:20;4.57;;;4.28;;
57820;SDS011;43649;49.474;8.466;2022-08-19T13:17:49;4.45;;;4.07;;
57820;SDS011;43649;49.474;8.466;2022-08-19T13:20:16;5.60;;;3.47;;
57820;SDS011;43649;49.474;8.466;2022-08-19T13:22:44;4.68;;;4.05;;
57820;SDS011;43649;49.474;8.466;2022-08-19T13:25:10;4.50;;;4.10;;
57820;SDS011;43649;49.474;8.466;2022-08-19T13:27:36;5.50;;;4.63;;
57820;SDS011;43649;49.474;8.466;2022-08-19T13:30:03;6.45;;;4.32;;
57820;SDS011;43649;49.474;8.466;2022-08-19T13:32:30;5.13;;;4.40;;
57820;SDS011;43649;49.474;8.466;2022-08-19T13:34:57;4.40;;;4.10;;
57820;SDS011;43649;49.474;8.466;2022-08-19T13:37:23;9.65;;;3.97;;
57820;SDS011;43649;49.474;8.466;2022-08-19T13:39:48;4.45;;;4.05;;
57820;SDS011;43649;49.474;8.466;2022-08-19T13:42:14;4.50;;;4.20;;
57820;SDS011;43649;49.474;8.466;2022-08-19T13:44:39;4.93;;;3.92;;
57820;SDS011;43649;49.474;8.466;2022-08-19T13:47:05;4.38;;;4.00;;
57820;SDS011;43649;49.474;8.466;2022-08-19T13:49:31;3.95;;;3.65;;
57820;SDS011;43649;49.474;8.466;2022-08-19T13:51:57;4.28;;;3.92;;
57820;SDS011;43649;49.474;8.466;2022-08-19T13:54:23;3.92;;;3.65;;
57820;SDS011;43649;49.474;8.466;2022-08-19T13:56:48;3.45;;;3.25;;
57820;SDS011;43649;49.474;8.466;2022-08-19T13:59:14;3.72;;;3.38;;
57820;SDS011;43649;49.474;8.466;2022-08-19T14:01:40;5.60;;;3.42;;
57820;SDS011;43649;49.474;8.466;2022-08-19T14:04:05;3.40;;;3.20;;
57820;SDS011;43649;49.474;8.466;2022-08-19T14:06:31;3.85;;;3.55;;
57820;SDS011;43649;49.474;8.466;2022-08-19T14:08:59;3.50;;;3.20;;
57820;SDS011;43649;49.474;8.466;2022-08-19T14:11:24;3.53;;;3.30;;
57820;SDS011;43649;49.474;8.466;2022-08-19T14:13:50;4.05;;;3.63;;
57820;SDS011;43649;49.474;8.466;2022-08-19T14:16:15;3.70;;;3.40;;
57820;SDS011;43649;49.474;8.466;2022-08-19T14:18:41;3.67;;;3.30;;
57820;SDS011;43649;49.474;8.466;2022-08-19T14:21:07;3.10;;;2.90;;
57820;SDS011;43649;49.474;8.466;2022-08-19T14:23:38;4.28;;;3.33;;
57820;SDS011;43649;49.474;8.466;2022-08-19T14:26:06;3.38;;;2.80;;